Time;durP1;ratioP1;P1;durP2;ratioP2;P2;SDS_P1;SDS_P2;PMS_P1;PMS_P2;Temp;Humidity;BMP_temperature;BMP_pressure;BME280_temperature;BME280_humidity;BME280_pressure;Samples;Min_cycle;Max_cycle;Signal;HPM_P1;HPM_P2
2022/10/02 00:02:35;;;;;;;4.28;0.77;;;;;;;;;;10517755;28;20699;-76
2022/10/02 00:07:43;;;;;;;6.32;1.60;;;;;;;;;;10518066;28;20056;-76
2022/10/02 00:12:53;;;;;;;9.18;1.10;;;;;;;;;;10501902;28;20052;-76
2022/10/02 00:17:59;;;;;;;5.75;1.25;;;;;;;;;;10509185;28;20045;-76
2022/10/02 00:23:08;;;;;;;6.88;1.58;;;;;;;;;;10509148;28;20581;-76
2022/10/02 00:28:28;;;;;;;8.98;1.77;;;;;;;;;;10517254;28;20040;-76
2022/10/02 00:33:39;;;;;;;8.75;2.05;;;;;;;;;;10517300;28;20389;-76
2022/10/02 00:38:54;;;;;;;7.82;1.67;;;;;;;;;;10499716;28;20530;-76
2022/10/02 00:44:18;;;;;;;7.68;1.50;;;;;;;;;;10516898;28;20054;-76
2022/10/02 00:49:49;;;;;;;5.22;1.30;;;;;;;;;;10478124;28;20617;-76
2022/10/02 00:55:18;;;;;;;5.65;1.70;;;;;;;;;;10483517;28;20451;-76
2022/10/02 01:00:23;;;;;;;4.43;0.88;;;;;;;;;;10514899;28;20048;-76
2022/10/02 01:05:27;;;;;;;10.10;1.17;;;;;;;;;;10500261;28;20043;-77
2022/10/02 01:10:30;;;;;;;3.40;0.80;;;;;;;;;;10488616;28;20032;-76
2022/10/02 01:15:38;;;;;;;4.80;1.13;;;;;;;;;;10512697;28;20389;-76
2022/10/02 01:20:44;;;;;;;2.13;0.60;;;;;;;;;;10487822;28;20508;-76
2022/10/02 01:25:49;;;;;;;4.40;0.90;;;;;;;;;;10515678;28;20052;-76
2022/10/02 01:30:58;;;;;;;2.92;1.08;;;;;;;;;;10516611;28;20051;-76
2022/10/02 01:36:02;;;;;;;2.70;0.73;;;;;;;;;;10515593;28;20706;-76
2022/10/02 01:41:07;;;;;;;6.25;0.60;;;;;;;;;;10514116;28;20051;-76
2022/10/02 01:46:24;;;;;;;3.70;0.80;;;;;;;;;;10503800;28;20051;-76
2022/10/02 01:51:46;;;;;;;2.92;0.98;;;;;;;;;;10524646;28;20051;-76
2022/10/02 01:57:01;;;;;;;2.75;0.70;;;;;;;;;;10510343;28;20051;-76
2022/10/02 02:02:13;;;;;;;2.93;0.67;;;;;;;;;;10523522;28;20051;-76
2022/10/02 02:07:27;;;;;;;2.50;0.63;;;;;;;;;;10490845;28;20258;-76
2022/10/02 02:12:40;;;;;;;4.82;1.00;;;;;;;;;;10495654;28;20128;-77
2022/10/02 02:17:49;;;;;;;4.47;1.27;;;;;;;;;;10522390;28;20055;-76
2022/10/02 02:22:54;;;;;;;6.22;1.02;;;;;;;;;;10521926;28;20048;-76
2022/10/02 02:28:03;;;;;;;4.25;0.80;;;;;;;;;;10522481;28;20036;-76
2022/10/02 02:33:10;;;;;;;4.68;1.27;;;;;;;;;;10521419;28;20047;-77
2022/10/02 02:38:18;;;;;;;6.40;1.27;;;;;;;;;;10468983;28;20051;-76
2022/10/02 02:43:28;;;;;;;6.63;1.70;;;;;;;;;;10521636;28;20056;-76
2022/10/02 02:48:37;;;;;;;5.65;1.50;;;;;;;;;;10520421;28;20048;-76
2022/10/02 02:53:44;;;;;;;6.38;1.23;;;;;;;;;;10505144;28;20044;-76
2022/10/02 02:58:53;;;;;;;7.93;1.58;;;;;;;;;;10498954;28;20040;-76
2022/10/02 03:03:57;;;;;;;12.43;2.22;;;;;;;;;;10520400;28;20036;-76
2022/10/02 03:09:01;;;;;;;6.20;1.33;;;;;;;;;;10518051;28;20040;-76
2022/10/02 03:14:24;;;;;;;11.43;1.98;;;;;;;;;;10519056;28;20040;-76
2022/10/02 03:19:40;;;;;;;7.82;1.75;;;;;;;;;;10500957;28;20055;-77
2022/10/02 03:24:49;;;;;;;6.63;1.30;;;;;;;;;;10504465;28;20048;-76
2022/10/02 03:29:59;;;;;;;9.50;2.50;;;;;;;;;;10519702;28;20054;-76
2022/10/02 03:35:05;;;;;;;8.63;1.27;;;;;;;;;;10519786;28;20067;-76
2022/10/02 03:40:09;;;;;;;14.00;2.50;;;;;;;;;;10500986;28;20052;-76
2022/10/02 03:45:14;;;;;;;12.05;2.40;;;;;;;;;;10511352;28;20047;-76
2022/10/02 03:50:25;;;;;;;6.28;1.52;;;;;;;;;;10502197;28;20128;-76
2022/10/02 03:55:32;;;;;;;5.80;1.30;;;;;;;;;;10500891;28;20047;-76
2022/10/02 04:00:40;;;;;;;10.02;2.10;;;;;;;;;;10493596;28;20086;-76
2022/10/02 04:05:51;;;;;;;11.60;1.70;;;;;;;;;;10511334;28;20499;-77
2022/10/02 04:10:59;;;;;;;6.97;1.20;;;;;;;;;;10500654;28;20088;-76
2022/10/02 04:16:09;;;;;;;8.93;1.63;;;;;;;;;;10501224;28;20052;-77
2022/10/02 04:21:21;;;;;;;4.78;1.33;;;;;;;;;;10486206;28;20411;-76
2022/10/02 04:26:28;;;;;;;2.80;1.10;;;;;;;;;;10493486;28;20040;-76
2022/10/02 04:31:32;;;;;;;;;;;;;;;;;;10483897;28;20036;-76
2022/10/02 04:36:46;;;;;;;5.95;0.82;;;;;;;;;;10501344;28;19919;-76
2022/10/02 04:42:03;;;;;;;5.20;1.15;;;;;;;;;;10517692;28;20055;-76
2022/10/02 04:47:22;;;;;;;2.72;0.60;;;;;;;;;;10516929;28;20044;-76
2022/10/02 04:52:41;;;;;;;2.92;0.50;;;;;;;;;;10517768;28;20070;-76
2022/10/02 04:57:57;;;;;;;2.05;0.70;;;;;;;;;;10484571;28;20535;-76
2022/10/02 05:03:16;;;;;;;5.45;0.95;;;;;;;;;;10517508;28;20040;-76
2022/10/02 05:08:38;;;;;;;2.63;0.60;;;;;;;;;;10487402;28;20235;-76
2022/10/02 05:13:55;;;;;;;2.55;0.80;;;;;;;;;;10474390;28;20059;-76
2022/10/02 05:19:14;;;;;;;2.33;0.60;;;;;;;;;;10510893;28;20123;-76
2022/10/02 05:24:33;;;;;;;3.40;0.60;;;;;;;;;;10507503;28;20051;-77
2022/10/02 05:29:53;;;;;;;2.85;0.60;;;;;;;;;;10500103;28;20071;-76
2022/10/02 05:35:09;;;;;;;6.82;1.42;;;;;;;;;;10508628;28;20508;-76
2022/10/02 05:40:19;;;;;;;5.38;0.70;;;;;;;;;;10519833;28;20040;-77
2022/10/02 05:45:27;;;;;;;4.82;1.10;;;;;;;;;;10499465;28;20036;-77
2022/10/02 05:50:36;;;;;;;3.42;0.68;;;;;;;;;;10477292;28;20041;-78
2022/10/02 05:55:44;;;;;;;2.90;0.70;;;;;;;;;;10462365;28;20044;-78
2022/10/02 06:00:51;;;;;;;3.22;0.93;;;;;;;;;;10503117;28;20443;-78
2022/10/02 06:06:02;;;;;;;7.28;1.48;;;;;;;;;;10495303;28;20055;-78
2022/10/02 06:11:11;;;;;;;2.35;0.60;;;;;;;;;;10518920;28;20058;-77
2022/10/02 06:16:19;;;;;;;1.88;0.60;;;;;;;;;;10482480;28;20189;-77
2022/10/02 06:21:33;;;;;;;1.85;0.60;;;;;;;;;;10506335;28;20119;-78
2022/10/02 06:26:43;;;;;;;2.35;0.47;;;;;;;;;;10494022;28;20070;-77
2022/10/02 06:31:53;;;;;;;0.63;0.50;;;;;;;;;;10491115;28;20719;-78
2022/10/02 06:37:35;;;;;;;1.45;0.65;;;;;;;;;;10477578;28;20042;-76
2022/10/02 06:42:51;;;;;;;2.33;0.50;;;;;;;;;;10442247;28;20136;-78
2022/10/02 06:48:04;;;;;;;2.25;0.77;;;;;;;;;;10482331;28;20059;-79
2022/10/02 06:53:19;;;;;;;2.75;0.40;;;;;;;;;;10500840;28;20036;-78
2022/10/02 06:58:47;;;;;;;0.95;0.40;;;;;;;;;;10491054;28;20056;-77
2022/10/02 07:04:05;;;;;;;1.30;0.30;;;;;;;;;;10486792;28;20448;-77
2022/10/02 07:09:32;;;;;;;1.65;0.63;;;;;;;;;;10488563;28;20039;-77
2022/10/02 07:14:56;;;;;;;0.88;0.30;;;;;;;;;;10521451;28;20048;-77
2022/10/02 07:20:25;;;;;;;1.38;0.30;;;;;;;;;;10496183;28;20576;-77
2022/10/02 07:25:44;;;;;;;0.55;0.20;;;;;;;;;;10474857;28;20657;-77
2022/10/02 07:30:55;;;;;;;0.55;0.20;;;;;;;;;;10485374;28;20408;-77
2022/10/02 07:51:48;;;;;;;0.40;0.30;;;;;;;;;;12846718;22;1342301;-85
2022/10/02 07:56:54;;;;;;;2.67;0.50;;;;;;;;;;12660452;23;20057;-81
2022/10/02 08:01:58;;;;;;;0.55;0.40;;;;;;;;;;12732440;23;20025;-80
2022/10/02 08:07:05;;;;;;;2.03;0.40;;;;;;;;;;12698458;23;20578;-79
2022/10/02 08:12:15;;;;;;;1.08;0.43;;;;;;;;;;12725533;23;20024;-81
2022/10/02 08:17:27;;;;;;;0.75;0.40;;;;;;;;;;12752807;23;20021;-83
2022/10/02 08:22:38;;;;;;;0.75;0.30;;;;;;;;;;12749750;23;20052;-79
2022/10/02 08:27:51;;;;;;;0.73;0.22;;;;;;;;;;12733506;23;20026;-80
2022/10/02 08:32:56;;;;;;;0.63;0.57;;;;;;;;;;12747727;23;20055;-81
2022/10/02 08:38:12;;;;;;;0.20;0.20;;;;;;;;;;12731981;23;20025;-81
2022/10/02 08:43:57;;;;;;;2.55;0.50;;;;;;;;;;12728357;23;20040;-80
2022/10/02 08:49:29;;;;;;;0.60;0.33;;;;;;;;;;12724407;23;20029;-81
2022/10/02 08:55:09;;;;;;;0.68;0.30;;;;;;;;;;12713986;23;20025;-81
2022/10/02 09:00:25;;;;;;;2.95;0.73;;;;;;;;;;12743215;23;20104;-82
2022/10/02 09:05:58;;;;;;;0.73;0.30;;;;;;;;;;12722220;23;20524;-80
2022/10/02 09:11:30;;;;;;;0.80;0.40;;;;;;;;;;12717270;23;20050;-79
2022/10/02 09:16:42;;;;;;;0.40;0.40;;;;;;;;;;12720216;23;20040;-79
2022/10/02 09:21:53;;;;;;;1.10;0.40;;;;;;;;;;12732524;23;20511;-79
2022/10/02 09:27:32;;;;;;;0.40;0.30;;;;;;;;;;12727777;23;20021;-79
2022/10/02 09:33:15;;;;;;;1.48;0.40;;;;;;;;;;12704108;23;20026;-80
2022/10/02 09:38:50;;;;;;;0.60;0.30;;;;;;;;;;12701518;23;20025;-80
2022/10/02 09:44:27;;;;;;;1.10;0.63;;;;;;;;;;12725083;23;20562;-79
2022/10/02 09:50:16;;;;;;;0.30;0.30;;;;;;;;;;12741240;23;20025;-79
2022/10/02 09:55:50;;;;;;;0.50;0.35;;;;;;;;;;12653957;23;20033;-80
2022/10/02 10:01:24;;;;;;;0.30;0.30;;;;;;;;;;12681999;23;20025;-80
2022/10/02 10:07:05;;;;;;;0.63;0.40;;;;;;;;;;12753053;23;20060;-80
2022/10/02 10:12:48;;;;;;;0.68;0.43;;;;;;;;;;12730241;23;20029;-80
2022/10/02 10:18:25;;;;;;;1.15;0.70;;;;;;;;;;12735700;23;20383;-81
2022/10/02 10:23:52;;;;;;;1.80;0.85;;;;;;;;;;12729398;23;20029;-80
2022/10/02 10:29:37;;;;;;;0.60;0.50;;;;;;;;;;12740460;23;20026;-81
2022/10/02 10:35:07;;;;;;;;;;;;;;;;;;12725062;23;20031;-80
2022/10/02 10:40:37;;;;;;;0.30;0.30;;;;;;;;;;12672050;23;20298;-81
2022/10/02 10:45:52;;;;;;;0.63;0.30;;;;;;;;;;12738721;23;20341;-80
2022/10/02 10:51:13;;;;;;;0.45;0.20;;;;;;;;;;12719932;23;20025;-80
2022/10/02 10:56:34;;;;;;;0.40;0.20;;;;;;;;;;12715082;23;20033;-81
2022/10/02 11:01:46;;;;;;;1.10;0.70;;;;;;;;;;12718500;23;20025;-80
2022/10/02 11:07:06;;;;;;;0.40;0.30;;;;;;;;;;12715791;23;20032;-80
2022/10/02 11:12:37;;;;;;;0.63;0.30;;;;;;;;;;12735210;23;20406;-81
2022/10/02 11:17:52;;;;;;;1.15;0.60;;;;;;;;;;12733730;23;20025;-80
2022/10/02 11:23:18;;;;;;;0.40;0.40;;;;;;;;;;12730187;23;20395;-80
2022/10/02 11:28:48;;;;;;;;;;;;;;;;;;12716763;23;20028;-80
2022/10/02 11:34:20;;;;;;;0.30;0.30;;;;;;;;;;12726211;23;19920;-79
2022/10/02 11:40:14;;;;;;;0.77;0.20;;;;;;;;;;12726679;23;20021;-80
2022/10/02 11:45:43;;;;;;;0.20;0.20;;;;;;;;;;12668712;23;20026;-79
2022/10/02 11:51:10;;;;;;;0.10;0.10;;;;;;;;;;12724781;23;20037;-80
2022/10/02 11:56:39;;;;;;;0.52;0.40;;;;;;;;;;12718424;23;20045;-80
2022/10/02 12:01:46;;;;;;;0.30;0.30;;;;;;;;;;12757967;23;20067;-84
2022/10/02 12:07:11;;;;;;;0.43;0.43;;;;;;;;;;12749912;23;20032;-85
2022/10/02 12:12:31;;;;;;;1.15;0.57;;;;;;;;;;12773716;23;20025;-85
2022/10/02 12:17:57;;;;;;;0.95;0.60;;;;;;;;;;12774040;23;20135;-85
2022/10/02 12:28:37;;;;;;;0.40;0.30;;;;;;;;;;12709487;23;19927;-84
2022/10/02 12:33:47;;;;;;;0.40;0.25;;;;;;;;;;12751069;23;20031;-84
2022/10/02 12:39:06;;;;;;;0.20;0.20;;;;;;;;;;12774285;23;20075;-83
2022/10/02 12:44:41;;;;;;;0.65;0.17;;;;;;;;;;12757991;23;20136;-84
2022/10/02 12:49:57;;;;;;;0.40;0.30;;;;;;;;;;12760534;23;20020;-84
2022/10/02 12:55:34;;;;;;;0.90;0.28;;;;;;;;;;12765480;23;20033;-86
2022/10/02 13:00:58;;;;;;;0.85;0.50;;;;;;;;;;12801603;23;20466;-86
2022/10/02 13:06:38;;;;;;;0.30;0.30;;;;;;;;;;12809517;23;20040;-83
2022/10/02 13:11:57;;;;;;;0.40;0.20;;;;;;;;;;12811874;23;20056;-83
2022/10/02 13:17:12;;;;;;;0.25;0.25;;;;;;;;;;12808182;23;20083;-83
2022/10/02 13:22:22;;;;;;;1.10;0.40;;;;;;;;;;12814098;23;20021;-83
2022/10/02 13:27:36;;;;;;;0.28;0.20;;;;;;;;;;12821866;23;20481;-85
2022/10/02 13:32:53;;;;;;;1.85;0.32;;;;;;;;;;12799291;23;20020;-86
2022/10/02 13:38:09;;;;;;;1.33;0.30;;;;;;;;;;12798947;23;20052;-85
2022/10/02 13:43:34;;;;;;;1.57;0.37;;;;;;;;;;12796230;23;20088;-85
2022/10/02 13:48:53;;;;;;;1.60;0.47;;;;;;;;;;12846764;23;20572;-85
2022/10/02 13:54:12;;;;;;;0.30;0.20;;;;;;;;;;12795185;23;20295;-87
2022/10/02 13:59:37;;;;;;;0.85;0.40;;;;;;;;;;12800525;23;20358;-87
2022/10/02 14:04:51;;;;;;;0.70;0.30;;;;;;;;;;12794149;23;20031;-85
2022/10/02 14:10:03;;;;;;;1.05;0.40;;;;;;;;;;12797435;23;20128;-85
2022/10/02 14:15:20;;;;;;;0.52;0.25;;;;;;;;;;12791944;23;20032;-85
2022/10/02 14:20:37;;;;;;;2.08;0.70;;;;;;;;;;12794782;23;20031;-86
2022/10/02 14:26:05;;;;;;;2.25;0.52;;;;;;;;;;12819972;23;20035;-87
2022/10/02 14:31:26;;;;;;;2.42;0.70;;;;;;;;;;12797607;23;20078;-86
2022/10/02 14:36:39;;;;;;;1.90;0.70;;;;;;;;;;12822351;23;20028;-86
2022/10/02 14:41:57;;;;;;;1.23;0.30;;;;;;;;;;12821910;23;20020;-85
2022/10/02 14:47:26;;;;;;;1.92;0.68;;;;;;;;;;12790388;23;20054;-86
2022/10/02 14:52:47;;;;;;;0.93;0.43;;;;;;;;;;12791380;23;20028;-86
2022/10/02 14:58:16;;;;;;;3.42;0.85;;;;;;;;;;12791935;23;20337;-85
2022/10/02 15:03:40;;;;;;;1.20;0.50;;;;;;;;;;12787380;23;20050;-87
2022/10/02 15:08:49;;;;;;;1.20;0.50;;;;;;;;;;12793009;23;20028;-87
2022/10/02 15:14:00;;;;;;;1.48;0.40;;;;;;;;;;12789759;23;20031;-88
2022/10/02 15:19:11;;;;;;;0.60;0.32;;;;;;;;;;12795538;23;20028;-87
2022/10/02 15:24:30;;;;;;;1.08;0.30;;;;;;;;;;12825693;23;20048;-86
2022/10/02 15:29:45;;;;;;;1.90;0.60;;;;;;;;;;12794627;23;20020;-87
2022/10/02 15:34:57;;;;;;;0.88;0.50;;;;;;;;;;12788913;23;20105;-87
2022/10/02 15:40:15;;;;;;;1.13;0.45;;;;;;;;;;12790416;23;20028;-87
2022/10/02 15:45:32;;;;;;;1.65;1.10;;;;;;;;;;12789992;23;20518;-88
2022/10/02 15:50:47;;;;;;;1.95;0.80;;;;;;;;;;12795630;23;20390;-88
2022/10/02 15:55:55;;;;;;;3.03;0.90;;;;;;;;;;12788998;23;20028;-87
2022/10/02 16:01:17;;;;;;;0.73;0.57;;;;;;;;;;12796247;23;20028;-88
2022/10/02 16:06:35;;;;;;;1.35;0.50;;;;;;;;;;12798469;23;20123;-88
2022/10/02 16:11:57;;;;;;;3.33;0.73;;;;;;;;;;12803562;23;20024;-87
2022/10/02 16:17:31;;;;;;;1.75;0.77;;;;;;;;;;12796466;23;20351;-87
2022/10/02 16:22:47;;;;;;;1.48;0.60;;;;;;;;;;12841406;23;20119;-87
2022/10/02 16:27:56;;;;;;;;;;;;;;;;;;12784492;23;20037;-83
2022/10/02 17:00:51;;;;;;;1.20;0.50;;;;;;;;;;12848246;23;20443;-84
2022/10/02 17:06:02;;;;;;;0.82;0.70;;;;;;;;;;12795824;23;20025;-84
2022/10/02 17:17:51;;;;;;;2.38;1.02;;;;;;;;;;12802038;23;20095;-83
2022/10/02 17:23:01;;;;;;;1.73;1.23;;;;;;;;;;12840578;23;20455;-84
2022/10/02 17:28:16;;;;;;;1.20;1.10;;;;;;;;;;12799060;23;20451;-84
2022/10/02 17:33:26;;;;;;;1.98;1.35;;;;;;;;;;12836316;23;20024;-84
2022/10/02 17:39:03;;;;;;;2.05;1.33;;;;;;;;;;12794135;23;20025;-84
2022/10/02 17:44:17;;;;;;;4.72;1.30;;;;;;;;;;12790270;23;20027;-84
2022/10/02 17:49:32;;;;;;;1.67;1.08;;;;;;;;;;12834028;23;20036;-83
2022/10/02 18:00:20;;;;;;;2.08;1.17;;;;;;;;;;12829773;23;20028;-84
2022/10/02 18:05:36;;;;;;;2.35;1.77;;;;;;;;;;12797303;23;20024;-85
2022/10/02 18:10:48;;;;;;;2.65;2.28;;;;;;;;;;12831124;23;20024;-85
2022/10/02 18:16:12;;;;;;;5.20;3.00;;;;;;;;;;12799979;23;20025;-85
2022/10/02 18:21:28;;;;;;;4.25;2.67;;;;;;;;;;12802960;23;20421;-85
2022/10/02 18:26:53;;;;;;;4.38;3.17;;;;;;;;;;12798850;23;20029;-85
2022/10/02 18:32:17;;;;;;;5.65;3.58;;;;;;;;;;12798764;23;20063;-85
2022/10/02 18:37:45;;;;;;;4.95;3.55;;;;;;;;;;12799322;23;20028;-85
2022/10/02 18:43:01;;;;;;;4.50;2.83;;;;;;;;;;12775008;23;20099;-85
2022/10/02 18:48:25;;;;;;;2.85;2.28;;;;;;;;;;12802876;23;20040;-85
2022/10/02 18:53:52;;;;;;;4.43;2.38;;;;;;;;;;12798368;23;20048;-84
2022/10/02 18:59:11;;;;;;;2.97;2.40;;;;;;;;;;12785327;23;20024;-85
2022/10/02 19:04:28;;;;;;;6.05;3.25;;;;;;;;;;12803351;23;20021;-85
2022/10/02 19:09:33;;;;;;;4.13;3.05;;;;;;;;;;12804431;23;20032;-84
2022/10/02 19:14:41;;;;;;;6.53;3.60;;;;;;;;;;12805926;23;20029;-84
2022/10/02 19:19:45;;;;;;;6.30;4.15;;;;;;;;;;12804879;23;20028;-84
2022/10/02 19:24:52;;;;;;;7.05;4.30;;;;;;;;;;12805209;23;20029;-84
2022/10/02 19:29:58;;;;;;;9.20;4.57;;;;;;;;;;12801254;23;20028;-84
2022/10/02 19:35:06;;;;;;;6.93;3.70;;;;;;;;;;12801674;23;20105;-84
2022/10/02 19:40:18;;;;;;;5.00;3.63;;;;;;;;;;12832643;23;20051;-84
2022/10/02 19:45:25;;;;;;;4.50;3.42;;;;;;;;;;12799795;23;20105;-83
2022/10/02 19:50:39;;;;;;;6.57;3.58;;;;;;;;;;12799231;23;20169;-84
2022/10/02 19:55:45;;;;;;;4.97;3.58;;;;;;;;;;12800924;23;20055;-84
2022/10/02 20:00:51;;;;;;;4.35;2.83;;;;;;;;;;12798561;23;20031;-84
2022/10/02 20:05:57;;;;;;;3.42;2.60;;;;;;;;;;12797992;23;20055;-84
2022/10/02 20:11:07;;;;;;;4.22;2.40;;;;;;;;;;12798819;23;20025;-83
2022/10/02 20:21:40;;;;;;;2.80;2.10;;;;;;;;;;12796486;23;20016;-84
2022/10/02 20:26:46;;;;;;;2.90;1.90;;;;;;;;;;12794781;23;20031;-85
2022/10/02 20:31:52;;;;;;;3.28;1.88;;;;;;;;;;12801686;23;20028;-84
2022/10/02 20:37:04;;;;;;;2.75;1.70;;;;;;;;;;12803230;23;20060;-85
2022/10/02 20:42:13;;;;;;;1.65;1.27;;;;;;;;;;12795293;23;20048;-84
2022/10/02 20:47:49;;;;;;;2.80;1.60;;;;;;;;;;12799085;23;20059;-83
2022/10/02 20:53:34;;;;;;;1.95;1.10;;;;;;;;;;12797883;23;20035;-84
2022/10/02 20:59:10;;;;;;;2.17;1.63;;;;;;;;;;12768151;23;20052;-84
2022/10/02 21:04:31;;;;;;;;;;;;;;;;;;12784923;23;20032;-83
2022/10/02 21:10:07;;;;;;;1.52;1.33;;;;;;;;;;12794724;23;19990;-82
2022/10/02 21:15:45;;;;;;;2.75;1.88;;;;;;;;;;12795291;23;20024;-83
2022/10/02 21:21:25;;;;;;;2.35;1.67;;;;;;;;;;12823349;23;20035;-82
2022/10/02 21:26:58;;;;;;;2.03;1.83;;;;;;;;;;12783310;23;20107;-82
2022/10/02 21:32:32;;;;;;;2.40;2.20;;;;;;;;;;12818043;23;20027;-83
2022/10/02 21:37:48;;;;;;;2.10;1.90;;;;;;;;;;12832739;23;20076;-82
2022/10/02 21:43:18;;;;;;;4.38;2.17;;;;;;;;;;12793300;23;20031;-82
2022/10/02 21:49:05;;;;;;;4.05;1.90;;;;;;;;;;12792485;23;20034;-82
2022/10/02 21:54:39;;;;;;;3.78;2.03;;;;;;;;;;12798194;23;20017;-82
2022/10/02 22:00:05;;;;;;;3.33;2.10;;;;;;;;;;12790773;23;20394;-82
2022/10/02 22:05:38;;;;;;;3.10;1.90;;;;;;;;;;12811533;23;20045;-82
2022/10/02 22:10:50;;;;;;;2.38;1.77;;;;;;;;;;12784880;23;20223;-82
2022/10/02 22:16:11;;;;;;;4.00;2.08;;;;;;;;;;12784309;23;20048;-82
2022/10/02 22:21:29;;;;;;;2.85;2.03;;;;;;;;;;12784554;23;20036;-82
2022/10/02 22:26:49;;;;;;;2.63;1.85;;;;;;;;;;12784062;23;20030;-82
2022/10/02 22:37:38;;;;;;;2.08;1.88;;;;;;;;;;12798115;23;20525;-83
2022/10/02 22:42:48;;;;;;;2.47;2.00;;;;;;;;;;12798280;23;20072;-83
2022/10/02 22:48:00;;;;;;;2.55;1.83;;;;;;;;;;12786384;23;20024;-82
2022/10/02 22:53:10;;;;;;;4.20;1.83;;;;;;;;;;12787628;23;20040;-84
2022/10/02 22:58:19;;;;;;;3.05;1.70;;;;;;;;;;12788971;23;20083;-83
2022/10/02 23:03:30;;;;;;;2.10;1.70;;;;;;;;;;12794068;23;20104;-84
2022/10/02 23:08:38;;;;;;;4.90;1.65;;;;;;;;;;12834325;23;20030;-84
2022/10/02 23:13:46;;;;;;;3.83;1.67;;;;;;;;;;12792698;23;20035;-84
2022/10/02 23:18:56;;;;;;;2.15;1.60;;;;;;;;;;12793621;23;20419;-83
2022/10/02 23:24:06;;;;;;;1.73;1.48;;;;;;;;;;12793407;23;20099;-83
2022/10/02 23:29:25;;;;;;;3.08;1.67;;;;;;;;;;12820288;23;20031;-83
2022/10/02 23:34:39;;;;;;;1.52;1.40;;;;;;;;;;12788823;23;20095;-83
2022/10/02 23:39:51;;;;;;;3.17;1.70;;;;;;;;;;12786794;23;20678;-84
2022/10/02 23:45:05;;;;;;;3.13;1.48;;;;;;;;;;12787141;23;20346;-84
2022/10/02 23:50:21;;;;;;;1.90;1.67;;;;;;;;;;12818978;23;20029;-84
2022/10/02 23:55:52;;;;;;;8.35;2.28;;;;;;;;;;12816945;23;20205;-84
